Terminal Aerodrome Forecast
Issued by NWS

Home | Current Version | Previous Version | Text Only | Print | Product List | Glossary On
Versions: 1 2 3 4 5 6 7 8 9 10 11 12 13 14 15 16 17 18
000
FTUS43 KLSX 201137
TAFUIN
TAF
KUIN 201137Z 2012/2112 16004KT P6SM OVC200
     FM201400 31012KT 6SM -TSRA OVC060CB
     FM201600 VRB04KT P6SM VCTS BKN100CB
     FM201800 17006KT P6SM SCT100=

USA.gov is the U.S. government's official web portal to all federal, state and local government web resources and services.